createdAt,value
2017-07-02T00:01:44.989Z,15.40
2017-07-02T00:04:13.281Z,15.40
2017-07-02T00:06:41.602Z,15.40
2017-07-02T00:09:09.887Z,15.40
2017-07-02T00:11:38.222Z,15.40
2017-07-02T00:14:07.270Z,15.40
2017-07-02T00:16:35.556Z,15.40
2017-07-02T00:19:03.896Z,15.40
2017-07-02T00:21:32.947Z,15.40
2017-07-02T00:24:01.247Z,15.40
2017-07-02T00:26:29.558Z,15.30
2017-07-02T00:28:57.842Z,15.30
2017-07-02T00:31:26.187Z,15.30
2017-07-02T00:33:54.477Z,15.30
2017-07-02T00:36:22.759Z,15.30
2017-07-02T00:38:51.095Z,15.30
2017-07-02T00:41:19.380Z,15.30
2017-07-02T00:43:47.663Z,15.30
2017-07-02T00:46:15.992Z,15.30
2017-07-02T00:48:45.038Z,15.30
2017-07-02T00:51:13.321Z,15.40
2017-07-02T00:53:41.665Z,15.40
2017-07-02T00:56:09.948Z,15.30
2017-07-02T00:58:38.239Z,15.30
2017-07-02T01:01:06.580Z,15.40
2017-07-02T01:03:34.863Z,15.40
2017-07-02T01:06:03.157Z,15.40
2017-07-02T01:08:31.479Z,15.40
2017-07-02T01:10:59.873Z,15.40
2017-07-02T01:13:28.209Z,15.30
2017-07-02T01:15:57.249Z,15.40
2017-07-02T01:18:25.594Z,15.40
2017-07-02T01:20:53.897Z,15.30
2017-07-02T01:23:22.943Z,15.30
2017-07-02T01:25:51.270Z,15.30
2017-07-02T01:28:19.542Z,15.30
2017-07-02T01:30:47.828Z,15.30
2017-07-02T01:33:16.164Z,15.20
2017-07-02T01:35:44.457Z,15.30
2017-07-02T01:38:13.499Z,15.30
2017-07-02T01:40:41.819Z,15.30
2017-07-02T01:43:10.095Z,15.30
2017-07-02T01:45:38.416Z,15.30
2017-07-02T01:48:06.700Z,15.30
2017-07-02T01:50:35.791Z,15.40
2017-07-02T01:53:04.084Z,15.40
2017-07-02T01:55:32.405Z,15.40
2017-07-02T01:58:00.742Z,15.40
2017-07-02T02:00:41.057Z,15.50
2017-07-02T02:03:15.032Z,15.40
2017-07-02T02:05:43.310Z,15.40
2017-07-02T02:08:11.649Z,15.40
2017-07-02T02:10:40.708Z,15.40
2017-07-02T02:13:08.983Z,15.40
2017-07-02T02:15:37.312Z,15.40
2017-07-02T02:18:05.656Z,15.50
2017-07-02T02:20:33.942Z,15.50
2017-07-02T02:23:02.222Z,15.50
2017-07-02T02:25:30.564Z,15.50
2017-07-02T02:27:58.852Z,15.60
2017-07-02T02:30:27.125Z,15.60
2017-07-02T02:32:55.452Z,15.60
2017-07-02T02:35:23.736Z,15.60
2017-07-02T02:37:52.054Z,15.60
2017-07-02T02:40:20.343Z,15.60
2017-07-02T02:42:49.399Z,15.60
2017-07-02T02:45:17.724Z,15.60
2017-07-02T02:47:46.767Z,15.60
2017-07-02T02:50:15.103Z,15.60
2017-07-02T02:52:43.432Z,15.60
2017-07-02T02:55:11.740Z,15.60
2017-07-02T02:57:40.050Z,15.60
2017-07-02T03:00:08.389Z,15.50
2017-07-02T03:02:37.441Z,15.50
2017-07-02T03:05:05.785Z,15.50
2017-07-02T03:07:34.903Z,15.60
2017-07-02T03:10:03.203Z,15.60
2017-07-02T03:12:31.491Z,15.60
2017-07-02T03:14:59.840Z,15.70
2017-07-02T03:17:28.140Z,15.70
2017-07-02T03:19:57.208Z,15.70
2017-07-02T03:22:25.535Z,15.70
2017-07-02T03:24:54.622Z,15.70
2017-07-02T03:27:22.932Z,15.70
2017-07-02T03:29:51.217Z,15.70
2017-07-02T03:32:20.324Z,15.70
2017-07-02T03:34:48.619Z,15.70
2017-07-02T03:37:17.684Z,15.80
2017-07-02T03:39:46.088Z,15.70
2017-07-02T03:42:14.366Z,15.70
2017-07-02T03:44:42.661Z,15.80
2017-07-02T03:47:10.991Z,15.80
2017-07-02T03:49:40.097Z,15.80
2017-07-02T03:52:09.156Z,15.90
2017-07-02T03:54:37.451Z,15.90
2017-07-02T03:57:05.791Z,16.00
2017-07-02T03:59:34.911Z,16.00
2017-07-02T04:02:03.972Z,16.00
2017-07-02T04:04:32.257Z,16.00
2017-07-02T04:07:00.597Z,16.00
2017-07-02T04:09:28.889Z,16.10
2017-07-02T04:11:57.179Z,16.10
2017-07-02T04:14:25.523Z,16.10
2017-07-02T04:16:53.833Z,16.20
2017-07-02T04:19:22.935Z,16.20
2017-07-02T04:21:52.022Z,16.10
2017-07-02T04:24:20.312Z,16.10
2017-07-02T04:26:48.655Z,16.20
2017-07-02T04:29:16.960Z,16.20
2017-07-02T04:31:45.260Z,16.20
2017-07-02T04:34:13.586Z,16.20
2017-07-02T04:36:41.933Z,16.30
2017-07-02T04:39:10.240Z,16.30
2017-07-02T04:41:38.563Z,16.30
2017-07-02T04:44:06.857Z,16.30
2017-07-02T04:46:35.188Z,16.30
2017-07-02T04:49:03.540Z,16.30
2017-07-02T04:51:32.583Z,16.20
2017-07-02T04:54:00.899Z,16.20
2017-07-02T04:56:29.244Z,16.10
2017-07-02T04:58:57.543Z,16.10
2017-07-02T05:01:25.839Z,16.10
2017-07-02T05:03:54.169Z,16.10
2017-07-02T05:06:22.515Z,16.10
2017-07-02T05:08:50.816Z,16.10
2017-07-02T05:11:19.113Z,16.00
2017-07-02T05:13:47.438Z,16.00
2017-07-02T05:16:16.503Z,16.00
2017-07-02T05:18:44.790Z,16.00
2017-07-02T05:21:13.127Z,16.10
2017-07-02T05:23:42.192Z,16.10
2017-07-02T05:26:10.487Z,16.00
2017-07-02T05:28:38.815Z,16.00
2017-07-02T05:31:07.873Z,15.80
2017-07-02T05:33:36.219Z,15.80
2017-07-02T05:36:05.283Z,15.60
2017-07-02T05:38:33.619Z,15.60
2017-07-02T05:41:02.727Z,15.70
2017-07-02T05:43:31.788Z,15.60
2017-07-02T05:46:00.114Z,15.60
2017-07-02T05:48:28.412Z,15.50
2017-07-02T05:50:57.516Z,15.50
2017-07-02T05:53:26.570Z,15.60
2017-07-02T05:55:54.902Z,15.60
2017-07-02T05:58:23.190Z,15.70
2017-07-02T06:00:51.540Z,15.70
2017-07-02T06:03:19.857Z,15.60
2017-07-02T06:05:48.164Z,15.70
2017-07-02T06:08:16.498Z,15.70
2017-07-02T06:10:44.798Z,15.80
2017-07-02T06:13:13.098Z,15.90
2017-07-02T06:15:41.583Z,15.90
2017-07-02T06:18:09.867Z,15.90
2017-07-02T06:20:38.164Z,15.80
2017-07-02T06:23:06.484Z,15.60
2017-07-02T06:25:34.812Z,15.60
2017-07-02T06:28:03.103Z,15.60
2017-07-02T06:30:31.439Z,15.60
2017-07-02T06:32:59.723Z,15.70
2017-07-02T06:35:28.070Z,15.80
2017-07-02T06:37:56.368Z,15.80
2017-07-02T06:40:24.664Z,15.90
2017-07-02T06:42:53.000Z,16.20
2017-07-02T06:45:21.280Z,16.40
2017-07-02T06:47:49.572Z,16.60
2017-07-02T06:50:17.908Z,16.70
2017-07-02T06:52:46.203Z,16.60
2017-07-02T06:55:14.493Z,16.60
2017-07-02T06:57:42.821Z,16.70
2017-07-02T07:00:11.101Z,16.60
2017-07-02T07:02:39.418Z,16.30
2017-07-02T07:05:07.770Z,16.10
2017-07-02T07:07:36.059Z,16.00
2017-07-02T07:10:04.357Z,16.00
2017-07-02T07:12:32.685Z,15.90
2017-07-02T07:15:01.735Z,16.00
2017-07-02T07:17:30.027Z,16.00
2017-07-02T07:19:58.350Z,16.00
2017-07-02T07:22:26.630Z,15.80
2017-07-02T07:24:54.992Z,15.80
2017-07-02T07:27:23.274Z,15.80
2017-07-02T07:29:51.571Z,15.80
2017-07-02T07:32:19.911Z,15.80
2017-07-02T07:34:48.437Z,16.10
2017-07-02T07:37:17.531Z,16.70
2017-07-02T07:39:46.598Z,16.90
2017-07-02T07:42:14.870Z,16.90
2017-07-02T07:44:43.186Z,17.00
2017-07-02T07:47:11.471Z,17.00
2017-07-02T07:49:39.823Z,16.90
2017-07-02T07:52:08.103Z,16.90
2017-07-02T07:54:36.399Z,17.00
2017-07-02T07:57:04.716Z,17.10
2017-07-02T07:59:33.056Z,17.30
2017-07-02T08:02:02.111Z,17.40
2017-07-02T08:04:30.399Z,17.40
2017-07-02T08:06:58.728Z,17.40
2017-07-02T08:09:27.828Z,17.40
2017-07-02T08:11:56.114Z,17.40
2017-07-02T08:14:24.395Z,17.20
2017-07-02T08:16:52.705Z,17.50
2017-07-02T08:19:21.783Z,17.70
2017-07-02T08:21:50.063Z,17.70
2017-07-02T08:24:18.414Z,17.80
2017-07-02T08:26:47.462Z,18.00
2017-07-02T08:29:15.735Z,18.00
2017-07-02T08:31:44.055Z,18.30
2017-07-02T08:34:12.347Z,18.50
2017-07-02T08:36:40.672Z,18.70
2017-07-02T08:39:08.965Z,18.50
2017-07-02T08:41:37.256Z,18.70
2017-07-02T08:44:05.576Z,18.70
2017-07-02T08:46:33.916Z,18.50
2017-07-02T08:49:02.966Z,18.60
2017-07-02T08:51:31.251Z,18.60
2017-07-02T08:53:59.671Z,18.60
2017-07-02T08:56:27.951Z,18.20
2017-07-02T08:58:56.279Z,18.10
2017-07-02T09:01:25.336Z,18.20
2017-07-02T09:03:53.647Z,18.10
2017-07-02T09:06:21.932Z,18.30
2017-07-02T09:08:50.273Z,18.30
2017-07-02T09:11:19.314Z,18.80
2017-07-02T09:13:48.432Z,18.80
2017-07-02T09:16:16.768Z,18.90
2017-07-02T09:18:45.823Z,18.90
2017-07-02T09:21:14.119Z,18.90
2017-07-02T09:23:42.422Z,19.20
2017-07-02T09:26:10.744Z,19.20
2017-07-02T09:28:39.786Z,19.40
2017-07-02T09:31:08.125Z,19.40
2017-07-02T09:33:36.478Z,19.60
2017-07-02T09:36:04.767Z,19.60
2017-07-02T09:38:33.042Z,19.50
2017-07-02T09:41:01.356Z,19.50
2017-07-02T09:43:29.630Z,19.70
2017-07-02T09:45:57.960Z,19.70
2017-07-02T09:48:26.230Z,19.90
2017-07-02T09:50:54.562Z,19.90
2017-07-02T09:53:23.606Z,19.90
2017-07-02T09:55:51.939Z,19.80
2017-07-02T09:58:20.225Z,19.70
2017-07-02T10:00:50.048Z,19.80
2017-07-02T10:03:18.374Z,19.80
2017-07-02T10:05:46.664Z,19.70
2017-07-02T10:08:14.943Z,19.50
2017-07-02T10:10:43.274Z,19.40
2017-07-02T10:13:12.345Z,19.60
2017-07-02T10:15:40.640Z,19.70
2017-07-02T10:18:08.950Z,19.40
2017-07-02T10:20:37.272Z,19.40
2017-07-02T10:23:05.604Z,19.30
2017-07-02T10:25:33.921Z,19.30
2017-07-02T10:28:02.210Z,18.90
2017-07-02T10:30:30.495Z,18.70
2017-07-02T10:32:58.825Z,18.50
2017-07-02T10:35:27.112Z,18.60
2017-07-02T10:37:55.416Z,18.70
2017-07-02T10:40:23.721Z,18.80
2017-07-02T10:42:52.052Z,18.90
2017-07-02T10:45:20.330Z,19.30
2017-07-02T10:47:48.611Z,19.60
2017-07-02T10:50:16.943Z,19.90
2017-07-02T10:52:45.232Z,20.20
2017-07-02T10:55:13.506Z,20.50
2017-07-02T10:57:41.842Z,20.90
2017-07-02T11:00:10.904Z,20.80
2017-07-02T11:02:39.189Z,20.80
2017-07-02T11:05:07.496Z,20.90
2017-07-02T11:07:35.771Z,20.60
2017-07-02T11:10:04.099Z,20.50
2017-07-02T11:12:33.192Z,20.40
2017-07-02T11:15:01.540Z,20.40
2017-07-02T11:17:29.818Z,20.40
2017-07-02T11:19:58.113Z,20.70
2017-07-02T11:22:26.430Z,20.60
2017-07-02T11:24:54.783Z,20.80
2017-07-02T11:27:23.071Z,20.90
2017-07-02T11:29:51.360Z,20.70
2017-07-02T11:32:19.699Z,20.60
2017-07-02T11:34:47.983Z,20.80
2017-07-02T11:37:16.272Z,21.00
2017-07-02T11:39:44.607Z,21.40
2017-07-02T11:42:12.890Z,21.60
2017-07-02T11:44:41.185Z,21.90
2017-07-02T11:47:09.507Z,21.80
2017-07-02T11:49:37.827Z,21.70
2017-07-02T11:52:06.160Z,21.20
2017-07-02T11:54:34.439Z,20.70
2017-07-02T11:57:02.763Z,20.30
2017-07-02T11:59:31.112Z,19.90
2017-07-02T12:02:00.168Z,19.70
2017-07-02T12:04:28.459Z,19.70
2017-07-02T12:06:56.766Z,19.60
2017-07-02T12:09:25.086Z,19.50
2017-07-02T12:11:54.136Z,19.20
2017-07-02T12:14:22.466Z,19.20
2017-07-02T12:16:50.761Z,19.00
2017-07-02T12:19:19.816Z,18.80
2017-07-02T12:21:48.282Z,18.80
2017-07-02T12:24:16.567Z,18.80
2017-07-02T12:26:45.636Z,19.00
2017-07-02T12:29:13.961Z,19.00
2017-07-02T12:31:42.251Z,19.10
2017-07-02T12:34:10.534Z,19.20
2017-07-02T12:36:39.629Z,19.20
2017-07-02T12:39:08.726Z,19.30
2017-07-02T12:41:37.042Z,19.30
2017-07-02T12:44:05.389Z,19.30
2017-07-02T12:46:33.675Z,19.30
2017-07-02T12:49:01.964Z,19.30
2017-07-02T12:51:30.291Z,19.30
2017-07-02T12:53:59.358Z,19.10
2017-07-02T12:56:27.631Z,19.10
2017-07-02T12:58:55.962Z,19.10
2017-07-02T13:01:24.245Z,19.00
2017-07-02T13:03:52.546Z,18.90
2017-07-02T13:06:20.879Z,18.90
2017-07-02T13:08:49.169Z,18.80
2017-07-02T13:11:17.442Z,18.70
2017-07-02T13:13:45.807Z,18.60
2017-07-02T13:16:14.868Z,18.80
2017-07-02T13:18:43.156Z,18.80
2017-07-02T13:21:11.474Z,18.90
2017-07-02T13:23:40.713Z,18.90
2017-07-02T13:26:09.763Z,18.90
2017-07-02T13:28:38.080Z,18.90
2017-07-02T13:31:06.424Z,18.90
2017-07-02T13:33:34.707Z,18.80
2017-07-02T13:36:02.995Z,18.60
2017-07-02T13:38:31.330Z,18.60
2017-07-02T13:40:59.612Z,18.50
2017-07-02T13:43:27.902Z,18.50
2017-07-02T13:45:56.224Z,18.40
2017-07-02T13:48:24.526Z,18.50
2017-07-02T13:50:52.810Z,18.60
2017-07-02T13:53:21.907Z,18.70
2017-07-02T13:55:50.950Z,18.70
2017-07-02T13:58:19.228Z,18.70
2017-07-02T14:00:47.572Z,18.50
2017-07-02T14:03:15.860Z,18.40
2017-07-02T14:05:44.366Z,18.30
2017-07-02T14:08:13.591Z,17.80
2017-07-02T14:10:42.634Z,17.80
2017-07-02T14:13:10.967Z,17.70
2017-07-02T14:15:39.268Z,17.60
2017-07-02T14:18:07.591Z,17.40
2017-07-02T14:20:35.870Z,17.30
2017-07-02T14:23:04.913Z,17.50
2017-07-02T14:25:33.241Z,17.50
2017-07-02T14:28:01.533Z,17.50
2017-07-02T14:30:29.866Z,17.60
2017-07-02T14:32:58.165Z,17.60
2017-07-02T14:35:26.456Z,17.40
2017-07-02T14:37:54.789Z,17.50
2017-07-02T14:40:23.111Z,17.50
2017-07-02T14:42:51.394Z,17.50
2017-07-02T14:45:19.719Z,17.60
2017-07-02T14:47:48.140Z,17.50
2017-07-02T14:50:16.439Z,17.60
2017-07-02T14:52:45.503Z,17.80
2017-07-02T14:55:13.857Z,17.80
2017-07-02T14:57:42.211Z,18.00
2017-07-02T15:00:10.506Z,18.30
2017-07-02T15:02:38.806Z,18.40
2017-07-02T15:05:07.140Z,18.50
2017-07-02T15:07:35.427Z,18.60
2017-07-02T15:10:03.719Z,18.60
2017-07-02T15:12:32.068Z,18.70
2017-07-02T15:15:01.129Z,18.80
2017-07-02T15:17:29.415Z,18.80
2017-07-02T15:19:57.742Z,18.80
2017-07-02T15:22:26.040Z,18.70
2017-07-02T15:24:54.311Z,18.70
2017-07-02T15:27:22.642Z,18.70
2017-07-02T15:29:50.983Z,18.70
2017-07-02T15:32:19.303Z,18.60
2017-07-02T15:34:48.419Z,18.60
2017-07-02T15:37:16.792Z,18.60
2017-07-02T15:39:45.142Z,18.60
2017-07-02T15:42:13.447Z,18.60
2017-07-02T15:44:42.045Z,18.70
2017-07-02T15:47:10.870Z,18.60
2017-07-02T15:49:39.854Z,18.70
2017-07-02T15:52:08.791Z,18.70
2017-07-02T15:54:37.476Z,18.70
2017-07-02T15:57:06.358Z,18.60
2017-07-02T15:59:34.848Z,18.50
2017-07-02T16:02:03.144Z,18.30
2017-07-02T16:04:31.489Z,18.20
2017-07-02T16:06:59.774Z,18.00
2017-07-02T16:09:28.110Z,17.80
2017-07-02T16:11:56.406Z,17.60
2017-07-02T16:14:24.748Z,17.40
2017-07-02T16:16:53.031Z,17.10
2017-07-02T16:19:21.329Z,17.00
2017-07-02T16:21:49.779Z,16.90
2017-07-02T16:24:18.055Z,16.90
2017-07-02T16:26:46.330Z,16.80
2017-07-02T16:29:14.656Z,16.70
2017-07-02T16:31:43.767Z,16.70
2017-07-02T16:34:12.815Z,16.60
2017-07-02T16:36:41.161Z,16.60
2017-07-02T16:39:09.449Z,16.60
2017-07-02T16:41:38.499Z,16.30
2017-07-02T16:44:06.837Z,16.30
2017-07-02T16:46:35.119Z,16.20
2017-07-02T16:49:03.417Z,16.20
2017-07-02T16:51:31.744Z,16.20
2017-07-02T16:54:00.072Z,16.20
2017-07-02T16:56:28.355Z,16.20
2017-07-02T16:58:56.758Z,16.20
2017-07-02T17:01:25.047Z,16.20
2017-07-02T17:03:53.384Z,16.20
2017-07-02T17:06:21.719Z,16.30
2017-07-02T17:08:50.004Z,16.40
2017-07-02T17:11:18.308Z,16.60
2017-07-02T17:13:46.664Z,16.70
2017-07-02T17:16:14.951Z,16.80
2017-07-02T17:18:43.253Z,16.90
2017-07-02T17:21:11.580Z,17.00
2017-07-02T17:23:39.876Z,17.10
2017-07-02T17:26:08.210Z,17.10
2017-07-02T17:28:36.534Z,17.20
2017-07-02T17:31:04.881Z,17.40
2017-07-02T17:33:33.169Z,17.60
2017-07-02T17:36:01.466Z,17.80
2017-07-02T17:38:29.785Z,18.00
2017-07-02T17:40:58.105Z,18.20
2017-07-02T17:43:26.439Z,18.50
2017-07-02T17:45:54.748Z,19.00
2017-07-02T17:48:23.050Z,19.70
2017-07-02T17:50:51.382Z,20.60
2017-07-02T17:53:19.683Z,21.20
2017-07-02T17:55:48.001Z,21.20
2017-07-02T17:58:16.352Z,21.80
2017-07-02T18:00:44.658Z,22.50
2017-07-02T18:03:12.959Z,23.30
2017-07-02T18:05:41.304Z,23.00
2017-07-02T18:08:10.361Z,21.80
2017-07-02T18:10:38.684Z,21.80
2017-07-02T18:13:06.979Z,21.20
2017-07-02T18:15:35.332Z,20.70
2017-07-02T18:18:03.638Z,20.20
2017-07-02T18:20:31.927Z,19.70
2017-07-02T18:23:00.275Z,19.40
2017-07-02T18:25:28.605Z,19.20
2017-07-02T18:27:56.882Z,19.00
2017-07-02T18:30:25.233Z,18.90
2017-07-02T18:32:54.355Z,19.20
2017-07-02T18:35:22.642Z,19.20
2017-07-02T18:37:50.938Z,19.10
2017-07-02T18:40:19.262Z,19.10
2017-07-02T18:42:47.554Z,19.00
2017-07-02T18:45:15.928Z,18.70
2017-07-02T18:47:44.259Z,18.50
2017-07-02T18:50:12.554Z,18.40
2017-07-02T18:52:41.736Z,18.00
2017-07-02T18:55:10.022Z,18.00
2017-07-02T18:57:38.302Z,17.90
2017-07-02T19:00:06.632Z,17.80
2017-07-02T19:02:35.736Z,17.40
2017-07-02T19:05:04.778Z,17.30
2017-07-02T19:07:33.062Z,17.30
2017-07-02T19:10:01.392Z,17.30
2017-07-02T19:12:29.671Z,17.10
2017-07-02T19:14:58.000Z,17.00
2017-07-02T19:17:27.144Z,16.80
2017-07-02T19:19:55.427Z,16.80
2017-07-02T19:22:23.756Z,16.70
2017-07-02T19:24:52.084Z,16.60
2017-07-02T19:27:21.140Z,16.40
2017-07-02T19:29:49.419Z,16.40
2017-07-02T19:32:17.733Z,16.30
2017-07-02T19:34:46.043Z,16.20
2017-07-02T19:37:14.328Z,16.10
2017-07-02T19:39:42.649Z,16.00
2017-07-02T19:42:10.927Z,15.90
2017-07-02T19:44:39.216Z,15.90
2017-07-02T19:47:08.308Z,15.90
2017-07-02T19:49:36.628Z,15.90
2017-07-02T19:52:04.951Z,15.80
2017-07-02T19:54:33.236Z,15.80
2017-07-02T19:57:01.584Z,15.80
2017-07-02T19:59:30.636Z,15.70
2017-07-02T20:01:58.923Z,15.70
2017-07-02T20:04:27.263Z,15.70
2017-07-02T20:06:56.306Z,15.50
2017-07-02T20:09:24.592Z,15.50
2017-07-02T20:11:52.924Z,15.50
2017-07-02T20:14:21.200Z,15.40
2017-07-02T20:16:49.551Z,15.40
2017-07-02T20:19:17.840Z,15.30
2017-07-02T20:21:46.174Z,15.30
2017-07-02T20:24:14.475Z,15.30
2017-07-02T20:26:42.761Z,15.30
2017-07-02T20:29:11.095Z,15.40
2017-07-02T20:31:39.383Z,15.30
2017-07-02T20:34:07.666Z,15.30
2017-07-02T20:36:36.757Z,15.40
2017-07-02T20:39:14.695Z,15.40
2017-07-02T20:41:43.778Z,15.40
2017-07-02T20:44:12.119Z,15.40
2017-07-02T20:46:40.402Z,15.40
2017-07-02T20:49:08.689Z,15.40
2017-07-02T20:51:37.009Z,15.40
2017-07-02T20:54:05.282Z,15.30
2017-07-02T20:56:33.610Z,15.40
2017-07-02T20:59:01.885Z,15.40
2017-07-02T21:01:30.185Z,15.40
2017-07-02T21:03:58.516Z,15.30
2017-07-02T21:06:26.808Z,15.30
2017-07-02T21:08:55.140Z,15.30
2017-07-02T21:11:23.414Z,15.30
2017-07-02T21:13:51.697Z,15.20
2017-07-02T21:16:20.025Z,15.20
2017-07-02T21:18:48.360Z,15.20
2017-07-02T21:21:16.657Z,15.20
2017-07-02T21:23:44.938Z,15.20
2017-07-02T21:26:13.274Z,15.10
2017-07-02T21:28:41.559Z,15.10
2017-07-02T21:31:09.903Z,15.20
2017-07-02T21:33:38.615Z,15.10
2017-07-02T21:36:06.895Z,15.10
2017-07-02T21:38:35.236Z,15.10
2017-07-02T21:41:03.518Z,15.10
2017-07-02T21:43:31.816Z,15.10
2017-07-02T21:46:00.166Z,15.10
2017-07-02T21:48:28.465Z,15.10
2017-07-02T21:50:56.734Z,15.00
2017-07-02T21:53:25.062Z,14.90
2017-07-02T21:55:53.339Z,14.90
2017-07-02T21:58:21.742Z,14.90
2017-07-02T22:00:50.084Z,14.90
2017-07-02T22:03:18.375Z,14.80
2017-07-02T22:05:46.668Z,14.80
2017-07-02T22:08:14.995Z,14.80
2017-07-02T22:10:43.293Z,14.70
2017-07-02T22:13:11.576Z,14.70
2017-07-02T22:15:39.891Z,14.80
2017-07-02T22:18:08.210Z,14.60
2017-07-02T22:20:36.495Z,14.50
2017-07-02T22:23:04.820Z,14.50
2017-07-02T22:25:33.094Z,14.60
2017-07-02T22:28:01.414Z,14.60
2017-07-02T22:30:29.700Z,14.50
2017-07-02T22:32:58.043Z,14.60
2017-07-02T22:35:26.361Z,14.50
2017-07-02T22:37:54.651Z,14.50
2017-07-02T22:40:22.974Z,14.50
2017-07-02T22:42:51.280Z,14.50
2017-07-02T22:45:20.371Z,14.40
2017-07-02T22:47:48.695Z,14.40
2017-07-02T22:50:17.746Z,14.30
2017-07-02T22:52:46.078Z,14.30
2017-07-02T22:55:15.141Z,14.10
2017-07-02T22:57:43.444Z,14.20
2017-07-02T23:00:11.759Z,14.10
2017-07-02T23:02:40.820Z,13.90
2017-07-02T23:05:09.978Z,13.90
2017-07-02T23:07:39.039Z,13.80
2017-07-02T23:10:07.327Z,13.80
2017-07-02T23:12:35.669Z,13.80
2017-07-02T23:15:04.771Z,13.70
2017-07-02T23:17:33.819Z,13.70
2017-07-02T23:20:02.098Z,13.70
2017-07-02T23:22:30.432Z,13.80
2017-07-02T23:24:58.710Z,13.80
2017-07-02T23:27:27.030Z,13.80
2017-07-02T23:29:56.086Z,13.70
2017-07-02T23:32:24.410Z,13.70
2017-07-02T23:34:52.704Z,13.70
2017-07-02T23:37:21.030Z,13.70
2017-07-02T23:39:49.324Z,13.60
2017-07-02T23:42:17.637Z,13.60
2017-07-02T23:44:45.979Z,13.60
2017-07-02T23:47:15.027Z,13.60
2017-07-02T23:49:43.323Z,13.50
2017-07-02T23:52:11.660Z,13.50
2017-07-02T23:54:39.958Z,13.50
2017-07-02T23:57:09.001Z,13.30
2017-07-02T23:59:37.330Z,13.30
